Time;durP1;ratioP1;P1;durP2;ratioP2;P2;SDS_P1;SDS_P2;PMS_P1;PMS_P2;Temp;Humidity;BMP_temperature;BMP_pressure;BME280_temperature;BME280_humidity;BME280_pressure;Samples;Min_cycle;Max_cycle;Signal;HPM_P1;HPM_P2
2021/06/23 00:01:25;;;;;;;21.27;7.82;;;;;;;;;;5032768;28;20523;-68
2021/06/23 00:03:52;;;;;;;23.55;7.38;;;;;;;;;;5032271;28;20042;-67
2021/06/23 00:06:18;;;;;;;31.92;7.93;;;;;;;;;;5032689;28;20025;-68
2021/06/23 00:08:43;;;;;;;20.75;7.60;;;;;;;;;;5032525;28;20095;-68
2021/06/23 00:11:10;;;;;;;31.85;8.43;;;;;;;;;;5014994;28;20017;-67
2021/06/23 00:13:36;;;;;;;23.52;8.63;;;;;;;;;;5032436;28;20057;-68
2021/06/23 00:16:06;;;;;;;20.10;7.95;;;;;;;;;;5032527;28;20017;-68
2021/06/23 00:18:32;;;;;;;27.60;9.32;;;;;;;;;;5014672;28;20481;-69
2021/06/23 00:20:57;;;;;;;20.15;7.45;;;;;;;;;;5032511;28;20424;-67
2021/06/23 00:23:23;;;;;;;27.65;8.73;;;;;;;;;;5032691;28;20013;-64
2021/06/23 00:25:50;;;;;;;31.50;10.07;;;;;;;;;;5036058;28;20014;-67
2021/06/23 00:28:16;;;;;;;24.83;8.40;;;;;;;;;;5036099;28;20025;-68
2021/06/23 00:30:42;;;;;;;16.00;7.32;;;;;;;;;;5035837;28;20021;-68
2021/06/23 00:33:11;;;;;;;22.65;7.30;;;;;;;;;;5035874;28;20021;-67
2021/06/23 00:35:37;;;;;;;20.42;8.07;;;;;;;;;;5035789;28;20059;-66
2021/06/23 00:38:03;;;;;;;21.88;7.65;;;;;;;;;;5035722;28;20025;-69
2021/06/23 00:40:30;;;;;;;22.10;8.68;;;;;;;;;;5035879;28;20048;-67
2021/06/23 00:42:56;;;;;;;31.88;9.02;;;;;;;;;;5018334;28;20024;-68
2021/06/23 00:45:22;;;;;;;20.58;8.27;;;;;;;;;;5035576;28;20017;-68
2021/06/23 00:47:50;;;;;;;23.65;8.55;;;;;;;;;;5035643;28;20029;-68
2021/06/23 00:50:17;;;;;;;23.58;7.65;;;;;;;;;;5035842;28;20014;-67
2021/06/23 00:52:44;;;;;;;21.90;8.15;;;;;;;;;;5035698;28;20028;-69
2021/06/23 00:55:10;;;;;;;28.25;8.50;;;;;;;;;;5017783;28;20335;-68
2021/06/23 00:57:38;;;;;;;26.20;8.73;;;;;;;;;;5035441;28;20381;-68
2021/06/23 01:00:05;;;;;;;22.88;7.30;;;;;;;;;;5035291;28;20021;-66
2021/06/23 01:02:31;;;;;;;38.40;9.40;;;;;;;;;;5035433;28;20049;-68
2021/06/23 01:04:57;;;;;;;36.85;8.30;;;;;;;;;;5017360;28;20059;-66
2021/06/23 01:07:23;;;;;;;33.72;9.07;;;;;;;;;;5035387;28;20037;-66
2021/06/23 01:09:51;;;;;;;25.02;8.15;;;;;;;;;;5017540;28;20036;-65
2021/06/23 01:12:31;;;;;;;31.08;9.20;;;;;;;;;;5035198;28;20018;-67
2021/06/23 01:14:59;;;;;;;25.48;7.53;;;;;;;;;;5035276;28;20033;-68
2021/06/23 01:17:28;;;;;;;22.33;7.22;;;;;;;;;;5035077;28;20036;-68
2021/06/23 01:20:03;;;;;;;27.92;9.05;;;;;;;;;;5035031;28;20023;-67
2021/06/23 01:22:29;;;;;;;25.08;8.98;;;;;;;;;;5017551;28;20438;-66
2021/06/23 01:24:55;;;;;;;21.77;7.88;;;;;;;;;;5034814;28;20031;-68
2021/06/23 01:27:21;;;;;;;20.55;8.15;;;;;;;;;;5033574;28;20105;-66
2021/06/23 01:29:47;;;;;;;24.67;8.75;;;;;;;;;;5017154;28;20112;-66
2021/06/23 01:32:13;;;;;;;27.60;8.02;;;;;;;;;;5017049;28;20512;-66
2021/06/23 01:34:42;;;;;;;26.50;8.73;;;;;;;;;;5034787;28;20056;-68
2021/06/23 01:37:08;;;;;;;25.25;8.82;;;;;;;;;;5034193;28;20022;-67
2021/06/23 01:39:33;;;;;;;16.63;7.75;;;;;;;;;;5034677;28;20091;-67
2021/06/23 01:42:00;;;;;;;23.00;7.05;;;;;;;;;;5016602;28;20072;-68
2021/06/23 01:44:28;;;;;;;27.50;8.50;;;;;;;;;;5034754;28;20117;-69
2021/06/23 01:46:53;;;;;;;28.38;8.00;;;;;;;;;;5034550;28;20017;-68
2021/06/23 01:49:21;;;;;;;21.80;8.02;;;;;;;;;;5016853;28;20029;-66
2021/06/23 01:51:46;;;;;;;27.50;9.32;;;;;;;;;;5034408;28;20028;-70
2021/06/23 01:54:12;;;;;;;23.65;7.70;;;;;;;;;;5034124;28;20029;-66
2021/06/23 01:56:38;;;;;;;19.77;7.68;;;;;;;;;;5034612;28;20018;-68
2021/06/23 01:59:05;;;;;;;30.77;8.40;;;;;;;;;;5034543;28;20076;-68
2021/06/23 02:01:50;;;;;;;24.58;7.40;;;;;;;;;;5034159;28;20018;-68
2021/06/23 02:04:32;;;;;;;25.08;7.95;;;;;;;;;;5034061;28;20410;-67
2021/06/23 02:07:10;;;;;;;22.05;7.72;;;;;;;;;;5034175;28;20064;-66
2021/06/23 02:09:42;;;;;;;26.80;7.63;;;;;;;;;;5034207;28;20014;-67
2021/06/23 02:12:27;;;;;;;22.35;7.72;;;;;;;;;;5033907;28;20021;-68
2021/06/23 02:15:06;;;;;;;29.95;7.93;;;;;;;;;;5016168;28;20033;-68
2021/06/23 02:17:32;;;;;;;18.45;7.05;;;;;;;;;;5034036;28;20381;-68
2021/06/23 02:20:00;;;;;;;19.08;7.68;;;;;;;;;;5033647;28;20017;-67
2021/06/23 02:22:27;;;;;;;22.05;7.30;;;;;;;;;;5033978;28;20018;-67
2021/06/23 02:25:01;;;;;;;19.58;7.90;;;;;;;;;;5033632;28;20022;-66
2021/06/23 02:27:27;;;;;;;28.58;8.45;;;;;;;;;;5033817;28;20028;-67
2021/06/23 02:29:54;;;;;;;18.05;6.78;;;;;;;;;;5033516;28;20021;-68
2021/06/23 02:32:23;;;;;;;24.83;8.02;;;;;;;;;;5033709;28;20100;-67
2021/06/23 02:34:53;;;;;;;19.33;6.93;;;;;;;;;;5033693;28;20029;-68
2021/06/23 02:37:19;;;;;;;18.23;7.68;;;;;;;;;;5033598;28;20018;-67
2021/06/23 02:39:45;;;;;;;20.13;7.78;;;;;;;;;;5033644;28;20025;-66
2021/06/23 02:42:11;;;;;;;24.25;7.35;;;;;;;;;;5033184;28;20010;-66
2021/06/23 02:44:38;;;;;;;23.45;7.10;;;;;;;;;;5032145;28;20022;-68
2021/06/23 02:47:05;;;;;;;25.98;7.43;;;;;;;;;;5032757;28;20100;-66
2021/06/23 02:49:31;;;;;;;30.60;7.53;;;;;;;;;;5033381;28;20064;-67
2021/06/23 02:51:57;;;;;;;30.98;7.78;;;;;;;;;;5033038;28;20048;-67
2021/06/23 02:54:24;;;;;;;34.15;10.95;;;;;;;;;;5033346;28;20033;-66
2021/06/23 02:56:51;;;;;;;18.88;6.88;;;;;;;;;;5033146;28;20025;-67
2021/06/23 02:59:18;;;;;;;27.17;8.40;;;;;;;;;;5033257;28;20021;-65
2021/06/23 03:01:44;;;;;;;22.88;7.38;;;;;;;;;;5032903;28;20017;-66
2021/06/23 03:04:10;;;;;;;38.80;7.40;;;;;;;;;;5033111;28;20068;-68
2021/06/23 03:06:36;;;;;;;23.70;7.15;;;;;;;;;;5031713;28;20025;-66
2021/06/23 03:09:03;;;;;;;34.80;8.20;;;;;;;;;;5015284;28;20018;-68
2021/06/23 03:11:33;;;;;;;19.90;7.63;;;;;;;;;;5015108;28;20017;-66
2021/06/23 03:14:00;;;;;;;21.95;7.18;;;;;;;;;;5032881;28;20037;-67
2021/06/23 03:16:26;;;;;;;29.85;9.43;;;;;;;;;;5033196;28;20014;-67
2021/06/23 03:18:53;;;;;;;19.58;7.93;;;;;;;;;;5032859;28;20016;-66
2021/06/23 03:21:20;;;;;;;23.10;6.95;;;;;;;;;;5033014;28;20020;-66
2021/06/23 03:23:46;;;;;;;25.75;8.07;;;;;;;;;;5033024;28;20017;-65
2021/06/23 03:26:12;;;;;;;34.95;9.32;;;;;;;;;;5032688;28;20546;-68
2021/06/23 03:28:38;;;;;;;33.58;8.15;;;;;;;;;;5015007;28;20481;-65
2021/06/23 03:31:05;;;;;;;22.65;7.68;;;;;;;;;;5033381;28;20376;-66
2021/06/23 03:33:31;;;;;;;21.83;6.95;;;;;;;;;;5032809;28;20401;-68
2021/06/23 03:35:57;;;;;;;27.48;7.15;;;;;;;;;;5032559;28;20076;-67
2021/06/23 03:38:23;;;;;;;24.13;8.57;;;;;;;;;;5015142;28;20053;-67
2021/06/23 03:40:49;;;;;;;21.88;7.13;;;;;;;;;;5015110;28;20021;-67
2021/06/23 03:43:19;;;;;;;18.17;7.18;;;;;;;;;;5032916;28;20374;-68
2021/06/23 03:45:45;;;;;;;20.80;6.82;;;;;;;;;;5032737;28;20381;-67
2021/06/23 03:48:11;;;;;;;22.92;6.95;;;;;;;;;;5032671;28;20026;-66
2021/06/23 03:50:37;;;;;;;24.77;7.63;;;;;;;;;;5032707;28;20404;-68
2021/06/23 03:53:03;;;;;;;22.48;6.68;;;;;;;;;;5010678;28;20041;-68
2021/06/23 03:55:30;;;;;;;23.13;6.57;;;;;;;;;;5031019;28;20033;-66
2021/06/23 03:57:56;;;;;;;25.33;6.60;;;;;;;;;;5014537;28;20405;-67
2021/06/23 04:00:24;;;;;;;21.15;7.07;;;;;;;;;;5036371;28;20020;-69
2021/06/23 04:02:50;;;;;;;21.43;6.47;;;;;;;;;;5018539;28;20045;-66
2021/06/23 04:05:16;;;;;;;27.00;7.55;;;;;;;;;;5019196;28;20465;-66
2021/06/23 04:07:43;;;;;;;28.33;7.53;;;;;;;;;;5036431;28;20025;-68
2021/06/23 04:10:09;;;;;;;41.05;8.80;;;;;;;;;;5036073;28;20017;-66
2021/06/23 04:12:35;;;;;;;32.47;8.07;;;;;;;;;;5018520;28;20384;-68
2021/06/23 04:15:03;;;;;;;41.72;8.95;;;;;;;;;;5018343;28;20601;-67
2021/06/23 04:17:29;;;;;;;25.20;7.60;;;;;;;;;;5036162;28;20017;-67
2021/06/23 04:19:55;;;;;;;36.30;7.47;;;;;;;;;;5035922;28;20504;-67
2021/06/23 04:22:24;;;;;;;40.03;7.47;;;;;;;;;;5036294;28;20104;-66
2021/06/23 04:24:52;;;;;;;27.07;6.50;;;;;;;;;;5035910;28;20027;-68
2021/06/23 04:27:19;;;;;;;26.00;7.67;;;;;;;;;;5036104;28;20017;-68
2021/06/23 04:29:44;;;;;;;44.78;7.05;;;;;;;;;;5035968;28;20060;-68
2021/06/23 04:32:10;;;;;;;33.58;7.18;;;;;;;;;;5035891;28;20044;-69
2021/06/23 04:34:36;;;;;;;38.95;6.70;;;;;;;;;;5036039;28;20425;-69
2021/06/23 04:37:03;;;;;;;32.75;6.53;;;;;;;;;;5035772;28;20104;-67
2021/06/23 04:39:29;;;;;;;38.72;5.97;;;;;;;;;;5035674;28;20029;-68
2021/06/23 04:41:55;;;;;;;43.80;6.85;;;;;;;;;;5035663;28;20440;-68
2021/06/23 04:44:22;;;;;;;39.45;6.05;;;;;;;;;;5036308;28;20021;-68
2021/06/23 04:46:48;;;;;;;27.70;5.80;;;;;;;;;;5018165;28;20036;-67
2021/06/23 04:49:15;;;;;;;29.13;5.40;;;;;;;;;;5018063;28;20106;-67
2021/06/23 04:51:40;;;;;;;26.35;6.10;;;;;;;;;;5035874;28;20033;-66
2021/06/23 04:54:06;;;;;;;37.78;7.25;;;;;;;;;;5035284;28;20496;-67
2021/06/23 04:56:32;;;;;;;36.55;6.13;;;;;;;;;;5035632;28;20514;-66
2021/06/23 04:59:00;;;;;;;99.82;9.23;;;;;;;;;;5035376;28;20018;-68
2021/06/23 05:01:26;;;;;;;29.25;5.78;;;;;;;;;;5017737;28;20024;-68
2021/06/23 05:03:52;;;;;;;32.22;6.82;;;;;;;;;;5034787;28;20045;-67
2021/06/23 05:06:18;;;;;;;27.65;6.15;;;;;;;;;;5035435;28;20128;-66
2021/06/23 05:08:45;;;;;;;34.75;5.90;;;;;;;;;;5035087;28;20533;-67
2021/06/23 05:11:12;;;;;;;29.30;5.88;;;;;;;;;;5034366;28;20020;-68
2021/06/23 05:13:37;;;;;;;38.58;6.90;;;;;;;;;;5035039;28;20063;-68
2021/06/23 05:16:04;;;;;;;28.23;5.18;;;;;;;;;;5034862;28;20025;-67
2021/06/23 05:18:31;;;;;;;31.02;5.10;;;;;;;;;;5035214;28;20429;-68
2021/06/23 05:20:57;;;;;;;33.95;4.72;;;;;;;;;;5034798;28;20402;-67
2021/06/23 05:23:23;;;;;;;33.10;6.03;;;;;;;;;;5035042;28;20051;-67
2021/06/23 05:25:49;;;;;;;24.67;5.35;;;;;;;;;;5035078;28;20021;-65
2021/06/23 05:28:16;;;;;;;25.23;5.15;;;;;;;;;;5035060;28;20021;-68
2021/06/23 05:30:42;;;;;;;26.65;5.00;;;;;;;;;;5017221;28;20385;-67
2021/06/23 05:33:07;;;;;;;22.17;5.32;;;;;;;;;;5034891;28;20017;-67
2021/06/23 05:35:34;;;;;;;27.77;5.03;;;;;;;;;;5034793;28;20025;-66
2021/06/23 05:38:00;;;;;;;29.92;5.45;;;;;;;;;;5034410;28;20018;-69
2021/06/23 05:40:26;;;;;;;25.88;5.90;;;;;;;;;;5034921;28;20021;-69
2021/06/23 05:42:52;;;;;;;31.52;6.22;;;;;;;;;;5034589;28;20462;-68
2021/06/23 05:45:18;;;;;;;28.48;6.03;;;;;;;;;;5034633;28;20056;-67
2021/06/23 05:47:45;;;;;;;21.10;4.97;;;;;;;;;;5034642;28;20017;-69
2021/06/23 05:50:11;;;;;;;14.65;4.00;;;;;;;;;;5016614;28;20474;-67
2021/06/23 05:52:36;;;;;;;27.67;5.53;;;;;;;;;;5034456;28;20469;-68
2021/06/23 05:55:04;;;;;;;21.13;5.57;;;;;;;;;;5016552;28;20086;-69
2021/06/23 05:57:31;;;;;;;30.30;5.97;;;;;;;;;;5016915;28;20381;-67
2021/06/23 05:59:58;;;;;;;23.98;4.00;;;;;;;;;;5034187;28;20082;-70
2021/06/23 06:02:35;;;;;;;21.80;4.40;;;;;;;;;;5048713;28;20013;-66
2021/06/23 06:05:11;;;;;;;22.05;5.38;;;;;;;;;;5050633;28;20107;-64
2021/06/23 06:07:50;;;;;;;37.55;5.43;;;;;;;;;;5035918;28;20033;-67
2021/06/23 06:10:15;;;;;;;21.88;5.28;;;;;;;;;;5050794;28;20060;-65
2021/06/23 06:12:55;;;;;;;23.13;4.53;;;;;;;;;;5052114;28;20102;-64
2021/06/23 06:15:32;;;;;;;26.02;4.20;;;;;;;;;;5051424;28;20530;-67
2021/06/23 06:18:06;;;;;;;16.73;4.18;;;;;;;;;;5053268;28;20044;-68
2021/06/23 06:20:31;;;;;;;15.07;4.20;;;;;;;;;;5051786;28;20435;-68
2021/06/23 06:22:57;;;;;;;21.10;4.38;;;;;;;;;;5052298;28;20024;-66
2021/06/23 06:25:25;;;;;;;20.15;4.70;;;;;;;;;;5033085;28;20172;-66
2021/06/23 06:27:51;;;;;;;17.45;4.75;;;;;;;;;;5019547;28;20497;-68
2021/06/23 06:30:16;;;;;;;27.42;4.85;;;;;;;;;;5030462;28;20026;-68
2021/06/23 06:32:42;;;;;;;30.85;4.97;;;;;;;;;;5031902;28;20358;-66
2021/06/23 06:35:08;;;;;;;18.20;4.10;;;;;;;;;;5028756;28;20029;-68
2021/06/23 06:37:33;;;;;;;23.40;4.53;;;;;;;;;;5031792;28;20524;-66
2021/06/23 06:39:58;;;;;;;21.70;5.15;;;;;;;;;;5031848;28;20032;-66
2021/06/23 06:42:24;;;;;;;18.45;4.55;;;;;;;;;;5030440;28;20025;-69
2021/06/23 06:44:50;;;;;;;18.70;4.10;;;;;;;;;;5032286;28;20014;-66
2021/06/23 06:47:16;;;;;;;13.23;3.42;;;;;;;;;;5032105;28;20013;-65
2021/06/23 06:49:41;;;;;;;20.02;4.25;;;;;;;;;;5031389;28;20091;-65
2021/06/23 06:52:07;;;;;;;24.48;4.20;;;;;;;;;;5032151;28;20014;-67
2021/06/23 06:54:32;;;;;;;24.63;4.68;;;;;;;;;;5031638;28;20017;-63
2021/06/23 06:56:58;;;;;;;28.17;4.32;;;;;;;;;;5030535;28;20071;-65
2021/06/23 06:59:23;;;;;;;18.67;3.60;;;;;;;;;;5032440;28;20397;-67
2021/06/23 07:01:49;;;;;;;21.92;3.65;;;;;;;;;;5031417;28;20009;-66
2021/06/23 07:04:15;;;;;;;16.15;3.30;;;;;;;;;;5030115;28;20038;-64
2021/06/23 07:06:41;;;;;;;16.65;3.67;;;;;;;;;;5031671;28;20371;-65
2021/06/23 07:09:07;;;;;;;16.45;4.07;;;;;;;;;;5031391;28;20149;-64
2021/06/23 07:11:32;;;;;;;17.02;4.47;;;;;;;;;;5031700;28;20022;-65
2021/06/23 07:13:58;;;;;;;15.88;3.30;;;;;;;;;;5031503;28;20040;-65
2021/06/23 07:16:23;;;;;;;10.50;3.03;;;;;;;;;;5031196;28;20084;-69
2021/06/23 07:18:49;;;;;;;19.50;3.78;;;;;;;;;;5030755;28;20036;-70
2021/06/23 07:21:18;;;;;;;23.83;4.03;;;;;;;;;;5032255;28;20425;-68
2021/06/23 07:23:44;;;;;;;18.27;4.13;;;;;;;;;;5031761;28;20033;-69
2021/06/23 07:26:09;;;;;;;21.35;4.28;;;;;;;;;;5031582;28;20021;-65
2021/06/23 07:28:52;;;;;;;17.50;3.60;;;;;;;;;;5031570;28;20473;-66
2021/06/23 07:31:26;;;;;;;115.95;9.60;;;;;;;;;;5029270;28;20013;-69
2021/06/23 07:33:58;;;;;;;17.02;3.35;;;;;;;;;;5029435;28;20456;-66
2021/06/23 07:36:36;;;;;;;16.98;4.53;;;;;;;;;;5029790;28;20033;-68
2021/06/23 07:39:08;;;;;;;17.13;4.07;;;;;;;;;;5027009;28;20018;-63
2021/06/23 07:41:34;;;;;;;19.85;3.88;;;;;;;;;;5000326;28;20316;-67
2021/06/23 07:43:59;;;;;;;17.30;3.35;;;;;;;;;;5028828;28;20017;-65
2021/06/23 07:46:26;;;;;;;16.90;4.45;;;;;;;;;;5030371;28;20017;-65
2021/06/23 07:48:53;;;;;;;21.33;4.00;;;;;;;;;;5028187;28;20036;-66
2021/06/23 07:51:21;;;;;;;13.93;2.83;;;;;;;;;;5028996;28;20026;-69
2021/06/23 07:56:26;;;;;;;8.10;2.90;;;;;;;;;;5031553;28;20052;-66
2021/06/23 08:02:09;;;;;;;20.73;4.03;;;;;;;;;;5031441;28;20079;-67
2021/06/23 08:09:40;;;;;;;16.42;2.92;;;;;;;;;;5011869;28;20030;-68
2021/06/23 08:14:43;;;;;;;17.85;3.60;;;;;;;;;;5010001;28;20025;-66
2021/06/23 08:17:09;;;;;;;13.20;2.85;;;;;;;;;;5012120;28;20097;-68
2021/06/23 08:19:35;;;;;;;12.15;2.75;;;;;;;;;;5017141;28;20052;-71
2021/06/23 08:22:01;;;;;;;12.73;2.47;;;;;;;;;;5008832;28;20042;-63
2021/06/23 08:24:26;;;;;;;12.60;2.80;;;;;;;;;;5010152;28;20115;-69
2021/06/23 08:26:53;;;;;;;11.05;3.00;;;;;;;;;;4991967;28;20030;-64
2021/06/23 08:29:19;;;;;;;17.35;3.03;;;;;;;;;;5010766;28;20104;-64
2021/06/23 08:31:45;;;;;;;12.00;3.05;;;;;;;;;;5011346;28;20014;-68
2021/06/23 08:34:10;;;;;;;18.77;2.78;;;;;;;;;;5009837;28;20028;-68
2021/06/23 08:36:37;;;;;;;17.73;3.20;;;;;;;;;;5013854;28;20077;-70
2021/06/23 08:39:03;;;;;;;12.90;2.28;;;;;;;;;;5011609;28;20014;-69
2021/06/23 08:41:29;;;;;;;12.23;2.60;;;;;;;;;;5013903;28;20021;-73
2021/06/23 08:43:56;;;;;;;14.43;2.80;;;;;;;;;;5021284;28;20022;-79
2021/06/23 08:46:21;;;;;;;39.13;4.32;;;;;;;;;;4981003;28;20022;-65
2021/06/23 08:48:47;;;;;;;18.85;3.38;;;;;;;;;;5013075;28;20072;-66
2021/06/23 08:51:13;;;;;;;10.57;2.55;;;;;;;;;;5014142;28;20021;-66
2021/06/23 08:53:38;;;;;;;12.18;2.50;;;;;;;;;;5013341;28;20163;-68
2021/06/23 08:56:05;;;;;;;13.88;3.13;;;;;;;;;;5012831;28;20512;-69
2021/06/23 08:58:31;;;;;;;19.23;3.53;;;;;;;;;;4991122;28;20475;-74
2021/06/23 09:00:56;;;;;;;12.25;2.53;;;;;;;;;;5013806;28;20037;-67
2021/06/23 09:03:22;;;;;;;8.80;3.13;;;;;;;;;;5019484;28;20053;-68
2021/06/23 09:05:48;;;;;;;8.48;2.10;;;;;;;;;;5033211;28;20010;-63
2021/06/23 09:08:27;;;;;;;11.98;2.47;;;;;;;;;;5016042;28;20021;-74
2021/06/23 09:10:53;;;;;;;10.05;2.17;;;;;;;;;;5034396;28;20021;-75
2021/06/23 09:13:19;;;;;;;8.90;2.20;;;;;;;;;;5033576;28;20067;-67
2021/06/23 09:15:48;;;;;;;9.85;2.78;;;;;;;;;;5032712;28;20032;-64
2021/06/23 09:18:34;;;;;;;12.90;2.40;;;;;;;;;;5033211;28;20009;-65
2021/06/23 09:21:03;;;;;;;15.13;2.70;;;;;;;;;;5034128;28;20544;-66
2021/06/23 09:23:38;;;;;;;10.48;2.17;;;;;;;;;;5016641;28;20064;-70
2021/06/23 09:26:08;;;;;;;10.07;2.15;;;;;;;;;;5033996;28;20024;-68
2021/06/23 09:28:34;;;;;;;12.77;3.08;;;;;;;;;;4997999;28;20029;-68
2021/06/23 09:30:59;;;;;;;14.07;2.60;;;;;;;;;;5022113;28;20020;-68
2021/06/23 09:33:25;;;;;;;8.77;2.38;;;;;;;;;;5034169;28;20496;-69
2021/06/23 09:35:59;;;;;;;10.35;2.30;;;;;;;;;;5033800;28;20060;-74
2021/06/23 09:38:43;;;;;;;10.00;2.42;;;;;;;;;;5016775;28;20023;-69
2021/06/23 09:41:27;;;;;;;18.55;3.00;;;;;;;;;;5016328;28;20119;-68
2021/06/23 09:43:54;;;;;;;7.43;2.70;;;;;;;;;;5033798;28;20097;-75
2021/06/23 09:46:28;;;;;;;7.60;2.30;;;;;;;;;;5033054;28;20381;-73
2021/06/23 09:49:13;;;;;;;14.70;2.60;;;;;;;;;;5013941;28;20025;-69
2021/06/23 09:51:39;;;;;;;41.92;4.25;;;;;;;;;;5013606;28;20354;-69
2021/06/23 09:54:05;;;;;;;12.13;2.55;;;;;;;;;;4996256;28;20375;-73
2021/06/23 09:56:45;;;;;;;9.50;2.08;;;;;;;;;;5021713;28;20028;-75
2021/06/23 09:59:24;;;;;;;14.15;2.53;;;;;;;;;;5000148;28;20109;-67
2021/06/23 10:01:50;;;;;;;13.30;2.65;;;;;;;;;;5016800;28;20029;-67
2021/06/23 10:04:15;;;;;;;9.63;2.22;;;;;;;;;;5035633;28;20045;-71
2021/06/23 10:06:43;;;;;;;7.68;2.05;;;;;;;;;;5038416;28;20026;-69
2021/06/23 10:09:13;;;;;;;11.23;2.08;;;;;;;;;;5033121;28;20029;-70
2021/06/23 10:11:39;;;;;;;14.10;2.72;;;;;;;;;;5006606;28;20056;-67
2021/06/23 10:14:08;;;;;;;12.55;2.72;;;;;;;;;;5026871;28;20056;-67
2021/06/23 10:16:35;;;;;;;15.13;2.88;;;;;;;;;;5032907;28;20025;-71
2021/06/23 10:19:02;;;;;;;6.70;2.20;;;;;;;;;;5032602;28;20416;-69
2021/06/23 10:21:30;;;;;;;8.85;2.28;;;;;;;;;;5032189;28;20031;-69
2021/06/23 10:23:56;;;;;;;15.40;2.20;;;;;;;;;;5031755;28;20103;-65
2021/06/23 10:26:22;;;;;;;10.48;2.33;;;;;;;;;;5032467;28;20029;-66
2021/06/23 10:28:49;;;;;;;10.88;3.17;;;;;;;;;;5031879;28;20515;-73
2021/06/23 10:31:16;;;;;;;18.83;2.92;;;;;;;;;;5032557;28;20091;-74
2021/06/23 10:33:42;;;;;;;12.90;2.67;;;;;;;;;;4999574;28;20033;-63
2021/06/23 10:36:07;;;;;;;15.60;2.80;;;;;;;;;;5028426;28;20028;-67
2021/06/23 10:38:33;;;;;;;11.30;2.30;;;;;;;;;;5029701;28;20108;-68
2021/06/23 10:40:59;;;;;;;11.40;2.58;;;;;;;;;;5032964;28;20067;-69
2021/06/23 10:43:24;;;;;;;13.38;2.88;;;;;;;;;;5032024;28;20048;-70
2021/06/23 10:45:50;;;;;;;13.90;2.95;;;;;;;;;;5031368;28;20369;-70
2021/06/23 10:48:15;;;;;;;11.68;3.13;;;;;;;;;;5013677;28;20051;-67
2021/06/23 10:50:41;;;;;;;17.50;3.38;;;;;;;;;;5031995;28;20010;-66
2021/06/23 10:53:25;;;;;;;13.65;2.97;;;;;;;;;;5032319;28;20021;-67
2021/06/23 10:55:52;;;;;;;8.38;2.60;;;;;;;;;;5030951;28;20418;-69
2021/06/23 10:58:25;;;;;;;8.45;2.65;;;;;;;;;;5031344;28;20094;-68
2021/06/23 11:01:04;;;;;;;15.02;3.55;;;;;;;;;;5031734;28;20017;-68
2021/06/23 11:03:30;;;;;;;20.05;4.22;;;;;;;;;;5031482;28;20041;-73
2021/06/23 11:05:56;;;;;;;16.30;3.00;;;;;;;;;;5031157;28;20029;-65
2021/06/23 11:08:24;;;;;;;17.70;3.65;;;;;;;;;;5030704;28;20040;-63
2021/06/23 11:10:50;;;;;;;12.53;3.73;;;;;;;;;;5031400;28;20520;-72
2021/06/23 11:13:20;;;;;;;13.85;3.20;;;;;;;;;;5013940;28;20491;-73
2021/06/23 11:15:50;;;;;;;10.63;3.00;;;;;;;;;;5029868;28;20095;-63
2021/06/23 11:18:22;;;;;;;12.90;3.30;;;;;;;;;;5029219;28;20033;-74
2021/06/23 11:20:55;;;;;;;16.23;3.50;;;;;;;;;;5031445;28;20064;-76
2021/06/23 11:23:39;;;;;;;8.85;2.90;;;;;;;;;;5031864;28;20009;-75
2021/06/23 11:26:05;;;;;;;17.13;3.45;;;;;;;;;;5030960;28;20028;-69
2021/06/23 11:28:31;;;;;;;10.90;3.00;;;;;;;;;;5031456;28;20021;-68
2021/06/23 11:31:10;;;;;;;16.55;3.58;;;;;;;;;;5027685;28;20040;-70
2021/06/23 11:33:42;;;;;;;12.63;3.13;;;;;;;;;;5031149;28;20377;-63
2021/06/23 11:36:09;;;;;;;15.00;3.83;;;;;;;;;;5030375;28;20072;-62
2021/06/23 11:38:35;;;;;;;17.90;3.83;;;;;;;;;;5031402;28;20020;-64
2021/06/23 11:41:02;;;;;;;14.10;3.45;;;;;;;;;;5030987;28;20151;-71
2021/06/23 11:43:28;;;;;;;17.50;3.67;;;;;;;;;;5030533;28;20425;-72
2021/06/23 11:45:53;;;;;;;14.80;3.30;;;;;;;;;;5030355;28;20037;-70
2021/06/23 11:48:19;;;;;;;14.68;4.15;;;;;;;;;;5030885;28;20029;-65
2021/06/23 11:50:45;;;;;;;17.52;3.33;;;;;;;;;;5030866;28;20028;-68
2021/06/23 11:53:11;;;;;;;15.48;3.55;;;;;;;;;;5031343;28;20382;-68
2021/06/23 11:55:37;;;;;;;25.17;4.32;;;;;;;;;;5030501;28;20037;-70
2021/06/23 11:58:03;;;;;;;16.55;4.32;;;;;;;;;;5030267;28;20026;-62
2021/06/23 12:00:29;;;;;;;14.60;3.70;;;;;;;;;;5031034;28;20014;-62
2021/06/23 12:02:56;;;;;;;18.60;3.92;;;;;;;;;;5030235;28;20018;-63
2021/06/23 12:05:22;;;;;;;12.38;3.67;;;;;;;;;;5030868;28;20426;-68
2021/06/23 12:07:47;;;;;;;14.93;3.67;;;;;;;;;;5031028;28;20478;-68
2021/06/23 12:10:13;;;;;;;13.13;4.07;;;;;;;;;;5012716;28;20032;-62
2021/06/23 12:12:39;;;;;;;26.58;4.68;;;;;;;;;;5014642;28;20507;-66
2021/06/23 12:15:06;;;;;;;13.35;3.13;;;;;;;;;;5030458;28;20116;-61
2021/06/23 12:17:32;;;;;;;13.60;3.20;;;;;;;;;;5030903;28;20391;-65
2021/06/23 12:19:57;;;;;;;11.27;3.80;;;;;;;;;;5031315;28;20018;-68
2021/06/23 12:22:26;;;;;;;15.40;2.85;;;;;;;;;;5017238;28;20025;-68
2021/06/23 12:24:52;;;;;;;23.63;4.05;;;;;;;;;;5034583;28;20501;-64
2021/06/23 12:27:17;;;;;;;8.77;2.72;;;;;;;;;;5034020;28;20108;-67
2021/06/23 12:29:43;;;;;;;12.50;2.80;;;;;;;;;;5016582;28;20109;-69
2021/06/23 12:32:08;;;;;;;22.52;3.55;;;;;;;;;;5033152;28;20021;-68
2021/06/23 12:34:34;;;;;;;9.48;2.90;;;;;;;;;;5034224;28;20048;-69
2021/06/23 12:36:59;;;;;;;10.75;2.85;;;;;;;;;;5034750;28;20470;-66
2021/06/23 12:39:25;;;;;;;9.35;2.88;;;;;;;;;;5034335;28;20032;-74
2021/06/23 12:41:51;;;;;;;15.68;3.08;;;;;;;;;;5016371;28;20385;-76
2021/06/23 12:44:16;;;;;;;14.35;3.75;;;;;;;;;;5034211;28;20014;-72
2021/06/23 12:46:42;;;;;;;15.35;3.03;;;;;;;;;;5016396;28;20016;-71
2021/06/23 12:49:07;;;;;;;19.05;3.65;;;;;;;;;;5035171;28;20017;-71
2021/06/23 12:51:34;;;;;;;13.90;3.30;;;;;;;;;;5033539;28;20105;-67
2021/06/23 12:53:59;;;;;;;13.30;2.97;;;;;;;;;;5033449;28;20124;-68
2021/06/23 12:56:24;;;;;;;13.70;2.80;;;;;;;;;;5033593;28;20112;-68
2021/06/23 12:58:50;;;;;;;8.77;2.97;;;;;;;;;;5034195;28;20024;-77
2021/06/23 13:01:16;;;;;;;8.15;2.58;;;;;;;;;;5016718;28;20021;-68
2021/06/23 13:03:41;;;;;;;15.52;2.97;;;;;;;;;;5033365;28;20129;-65
2021/06/23 13:06:07;;;;;;;8.60;3.05;;;;;;;;;;5032760;28;20124;-65
2021/06/23 13:08:33;;;;;;;15.73;2.97;;;;;;;;;;5034178;28;20488;-67
2021/06/23 13:10:59;;;;;;;19.90;3.00;;;;;;;;;;5033839;28;20025;-71
2021/06/23 13:13:26;;;;;;;16.60;4.90;;;;;;;;;;5033933;28;20020;-70
2021/06/23 13:15:52;;;;;;;11.80;3.22;;;;;;;;;;5033200;28;20033;-67
2021/06/23 13:18:18;;;;;;;11.82;2.95;;;;;;;;;;5033517;28;20021;-68
2021/06/23 13:20:44;;;;;;;8.13;2.72;;;;;;;;;;5033406;28;20017;-67
2021/06/23 13:23:10;;;;;;;6.72;2.40;;;;;;;;;;5034120;28;20017;-73
2021/06/23 13:25:35;;;;;;;21.88;3.60;;;;;;;;;;5033429;28;20021;-77
2021/06/23 13:28:01;;;;;;;12.60;2.60;;;;;;;;;;5015954;28;20397;-71
2021/06/23 13:30:26;;;;;;;17.63;3.03;;;;;;;;;;5033347;28;20397;-65
2021/06/23 13:32:52;;;;;;;18.23;3.40;;;;;;;;;;5032547;28;20010;-66
2021/06/23 13:35:18;;;;;;;21.33;3.78;;;;;;;;;;5033041;28;20112;-66
2021/06/23 13:37:45;;;;;;;19.95;3.20;;;;;;;;;;5033245;28;20021;-76
2021/06/23 13:40:11;;;;;;;14.60;3.30;;;;;;;;;;5032895;28;20063;-71
2021/06/23 13:42:36;;;;;;;11.30;3.40;;;;;;;;;;5032926;28;20013;-71
2021/06/23 13:45:02;;;;;;;12.77;2.97;;;;;;;;;;5032025;28;20032;-66
2021/06/23 13:47:27;;;;;;;15.00;3.58;;;;;;;;;;5021883;28;20017;-63
2021/06/23 13:49:54;;;;;;;11.90;3.08;;;;;;;;;;5033031;28;20470;-65
2021/06/23 13:52:20;;;;;;;12.38;3.30;;;;;;;;;;5033460;28;20389;-65
2021/06/23 13:54:45;;;;;;;12.20;2.78;;;;;;;;;;5032691;28;20017;-66
2021/06/23 13:57:12;;;;;;;11.20;2.55;;;;;;;;;;5032979;28;20112;-70
2021/06/23 13:59:37;;;;;;;10.02;2.83;;;;;;;;;;5032867;28;20025;-64
2021/06/23 14:02:03;;;;;;;8.25;3.25;;;;;;;;;;5032302;28;20097;-64
2021/06/23 14:04:29;;;;;;;16.40;3.70;;;;;;;;;;5032329;28;20152;-71
2021/06/23 14:06:54;;;;;;;10.18;2.60;;;;;;;;;;5030842;28;20021;-70
2021/06/23 14:09:20;;;;;;;15.27;3.50;;;;;;;;;;5031569;28;20020;-71
2021/06/23 14:11:45;;;;;;;12.68;2.90;;;;;;;;;;5040956;28;20031;-75
2021/06/23 14:14:11;;;;;;;13.90;2.55;;;;;;;;;;5040194;28;20029;-65
2021/06/23 14:16:36;;;;;;;11.98;2.58;;;;;;;;;;5032913;28;20049;-65
2021/06/23 14:19:02;;;;;;;11.25;2.67;;;;;;;;;;5032267;28;20021;-66
2021/06/23 14:21:29;;;;;;;11.10;2.58;;;;;;;;;;5033263;28;20014;-66
2021/06/23 14:23:55;;;;;;;14.80;3.57;;;;;;;;;;5031507;28;20444;-68
2021/06/23 14:26:21;;;;;;;13.68;3.03;;;;;;;;;;5032233;28;20263;-69
2021/06/23 14:28:48;;;;;;;11.95;2.50;;;;;;;;;;5032426;28;20192;-64
2021/06/23 14:31:16;;;;;;;10.37;2.67;;;;;;;;;;5033481;28;20018;-64
2021/06/23 14:33:44;;;;;;;6.82;2.70;;;;;;;;;;5032894;28;20105;-65
2021/06/23 14:36:11;;;;;;;;;;;;;;;;;;5033089;28;20393;-64
2021/06/23 14:38:39;;;;;;;8.40;2.55;;;;;;;;;;5032285;28;19916;-65
2021/06/23 14:41:07;;;;;;;10.52;2.75;;;;;;;;;;5032862;28;20063;-64
2021/06/23 14:43:35;;;;;;;11.90;3.03;;;;;;;;;;5014987;28;20057;-65
2021/06/23 14:46:04;;;;;;;9.95;2.15;;;;;;;;;;5032189;28;20297;-63